Time;durP1;ratioP1;P1;durP2;ratioP2;P2;SDS_P1;SDS_P2;PMS_P1;PMS_P2;Temp;Humidity;BMP_temperature;BMP_pressure;BME280_temperature;BME280_humidity;BME280_pressure;Samples;Min_cycle;Max_cycle;Signal;HPM_P1;HPM_P2
2022/12/28 00:01:18;;;;;;;5.57;1.90;;;;;;;3.47;98.96;101045.78;5013034;28;20046;-79
2022/12/28 00:03:45;;;;;;;9.18;1.92;;;;;;;3.46;97.88;101041.38;5020381;28;20417;-80
2022/12/28 00:06:12;;;;;;;4.40;1.63;;;;;;;3.46;98.01;101041.38;5031247;28;20453;-77
2022/12/28 00:08:39;;;;;;;6.03;2.10;;;;;;;3.42;97.78;101027.34;5017163;28;20484;-77
2022/12/28 00:11:13;;;;;;;4.53;1.77;;;;;;;3.45;98.01;101026.22;5015447;28;20060;-79
2022/12/28 00:13:39;;;;;;;6.53;1.75;;;;;;;3.40;97.97;101025.81;5016824;28;20056;-79
2022/12/28 00:16:17;;;;;;;4.05;1.45;;;;;;;3.33;99.09;101022.06;5022266;28;20037;-78
2022/12/28 00:18:43;;;;;;;8.75;1.75;;;;;;;3.26;100.00;101006.53;5029467;28;20565;-79
2022/12/28 00:21:09;;;;;;;5.57;1.63;;;;;;;3.26;100.00;101006.53;5015923;28;20046;-79
2022/12/28 00:23:36;;;;;;;6.05;1.55;;;;;;;3.23;100.00;101006.88;5015345;28;20037;-78
2022/12/28 00:26:11;;;;;;;4.80;1.60;;;;;;;3.20;100.00;101001.78;5015545;28;20034;-80
2022/12/28 00:28:37;;;;;;;4.47;1.58;;;;;;;3.30;98.19;100996.25;5016009;28;20087;-78
2022/12/28 00:31:03;;;;;;;6.18;1.50;;;;;;;3.23;99.61;100995.22;5015991;28;20373;-78
2022/12/28 00:33:30;;;;;;;4.25;1.40;;;;;;;3.23;99.13;100995.22;5016532;28;20177;-79
2022/12/28 00:35:59;;;;;;;4.38;2.03;;;;;;;3.19;98.69;100993.84;5028568;28;20390;-78
2022/12/28 00:38:27;;;;;;;4.38;1.40;;;;;;;3.19;98.84;100994.72;5013952;28;20056;-79
2022/12/28 00:40:53;;;;;;;3.75;1.67;;;;;;;3.09;100.00;100993.94;5014885;28;20044;-78
2022/12/28 00:43:20;;;;;;;3.85;1.30;;;;;;;3.07;100.00;100986.03;5015345;28;20398;-79
2022/12/28 00:45:47;;;;;;;4.50;1.77;;;;;;;3.11;99.88;100975.78;5021563;28;20080;-79
2022/12/28 00:48:14;;;;;;;6.10;1.63;;;;;;;3.05;100.00;100971.88;5029645;28;20434;-78
2022/12/28 00:50:41;;;;;;;3.92;1.63;;;;;;;2.98;100.00;100968.09;5016176;28;20038;-78
2022/12/28 00:53:09;;;;;;;4.78;1.52;;;;;;;2.94;100.00;100973.00;5017343;28;20034;-79
2022/12/28 00:55:36;;;;;;;4.57;1.13;;;;;;;2.95;100.00;100971.13;5028941;28;20561;-78
2022/12/28 00:58:05;;;;;;;2.60;1.25;;;;;;;3.03;100.00;100957.69;5014098;28;20058;-77
2022/12/28 01:00:31;;;;;;;9.07;1.77;;;;;;;3.03;99.83;100949.59;5021459;28;20037;-81
2022/12/28 01:02:58;;;;;;;6.68;1.33;;;;;;;3.09;98.47;100945.44;5022386;28;20042;-79
2022/12/28 01:05:24;;;;;;;6.97;1.98;;;;;;;3.07;98.90;100942.91;5021475;28;20049;-77
2022/12/28 01:07:50;;;;;;;5.93;1.60;;;;;;;2.97;99.98;100932.22;5016609;28;20081;-80
2022/12/28 01:10:17;;;;;;;5.38;1.50;;;;;;;2.82;100.00;100928.44;5016429;28;20787;-80
2022/12/28 01:12:43;;;;;;;6.32;1.80;;;;;;;2.86;100.00;100925.25;5014551;28;20057;-80
2022/12/28 01:15:11;;;;;;;4.85;1.58;;;;;;;2.76;100.00;100920.97;5014180;28;20489;-78
2022/12/28 01:17:37;;;;;;;5.13;1.80;;;;;;;2.74;100.00;100918.44;5019614;28;20080;-78
2022/12/28 01:20:05;;;;;;;5.72;1.83;;;;;;;2.62;100.00;100919.72;5015947;28;20156;-78
2022/12/28 01:22:31;;;;;;;7.43;1.67;;;;;;;2.54;100.00;100915.97;5015497;28;20523;-79
2022/12/28 01:24:58;;;;;;;2.97;1.27;;;;;;;2.55;100.00;100908.72;5029664;28;20034;-78
2022/12/28 01:27:24;;;;;;;5.53;1.70;;;;;;;2.53;100.00;100903.50;5015140;28;20049;-79
2022/12/28 01:29:50;;;;;;;6.78;1.70;;;;;;;2.53;100.00;100898.13;5013985;28;20034;-78
2022/12/28 01:32:16;;;;;;;4.85;1.60;;;;;;;2.50;100.00;100893.03;5014069;28;20072;-79
2022/12/28 01:34:42;;;;;;;4.13;1.40;;;;;;;2.52;100.00;100896.44;5014405;28;20065;-79
2022/12/28 01:37:11;;;;;;;7.40;1.65;;;;;;;2.51;100.00;100899.25;5027988;28;20036;-79
2022/12/28 01:39:37;;;;;;;8.75;1.52;;;;;;;2.53;100.00;100899.94;5013953;28;20041;-79
2022/12/28 01:42:03;;;;;;;6.47;1.83;;;;;;;2.55;100.00;100897.94;5014765;28;20041;-79
2022/12/28 01:44:43;;;;;;;6.88;1.70;;;;;;;2.46;100.00;100877.34;5015351;28;20030;-78
2022/12/28 01:47:13;;;;;;;7.53;1.60;;;;;;;2.50;100.00;100873.34;5012359;28;20040;-78
2022/12/28 01:49:51;;;;;;;3.85;1.60;;;;;;;2.49;100.00;100874.34;5014566;28;20154;-78
2022/12/28 01:52:34;;;;;;;5.18;2.03;;;;;;;2.44;100.00;100869.41;5014137;28;20041;-78
2022/12/28 01:55:24;;;;;;;4.88;1.85;;;;;;;2.43;100.00;100868.59;5014694;28;20038;-78
2022/12/28 01:57:59;;;;;;;3.53;1.50;;;;;;;2.50;100.00;100858.00;5014821;28;20057;-78
2022/12/28 02:00:26;;;;;;;5.78;1.85;;;;;;;2.57;100.00;100842.91;5027439;28;20486;-78
2022/12/28 02:03:04;;;;;;;5.10;1.60;;;;;;;2.79;100.00;100827.22;5015079;28;20042;-78
2022/12/28 02:05:38;;;;;;;6.55;1.67;;;;;;;2.93;100.00;100814.97;5012556;28;20069;-78
2022/12/28 02:08:19;;;;;;;5.43;2.13;;;;;;;3.01;100.00;100804.22;5021080;28;20080;-77
2022/12/28 02:10:45;;;;;;;9.02;2.08;;;;;;;3.00;100.00;100815.16;5014570;28;20038;-79
2022/12/28 02:13:16;;;;;;;4.95;1.30;;;;;;;3.05;100.00;100806.56;5017070;28;20041;-78
2022/12/28 02:15:43;;;;;;;5.78;1.70;;;;;;;3.08;100.00;100799.03;5014246;28;20505;-78
2022/12/28 02:18:11;;;;;;;4.70;1.60;;;;;;;3.09;100.00;100802.53;5013697;28;20022;-78
2022/12/28 02:21:05;;;;;;;5.57;1.63;;;;;;;3.09;100.00;100799.84;5013999;28;20033;-78
2022/12/28 02:24:09;;;;;;;6.53;2.03;;;;;;;3.10;100.00;100790.75;5029080;28;20064;-78
2022/12/28 02:26:53;;;;;;;5.97;1.70;;;;;;;3.17;100.00;100791.78;5020414;28;20033;-79
2022/12/28 02:29:33;;;;;;;4.90;1.60;;;;;;;3.14;100.00;100771.41;5014077;28;20037;-79
2022/12/28 02:32:26;;;;;;;5.18;2.30;;;;;;;3.25;99.52;100772.94;5013674;28;20034;-79
2022/12/28 02:35:14;;;;;;;4.75;1.60;;;;;;;3.22;100.00;100764.31;5013720;28;20030;-78
2022/12/28 02:37:46;;;;;;;4.57;1.90;;;;;;;3.25;100.00;100764.00;5013569;28;20030;-77
2022/12/28 02:40:41;;;;;;;5.40;1.92;;;;;;;3.20;100.00;100756.41;5018943;28;20049;-78
2022/12/28 02:43:08;;;;;;;3.22;1.42;;;;;;;3.20;100.00;100756.41;5011246;28;20049;-78
2022/12/28 02:51:25;;;;;;;8.10;2.00;;;;;;;3.21;100.00;100741.94;5012978;28;20112;-80
2022/12/28 02:53:57;;;;;;;5.68;1.70;;;;;;;3.25;100.00;100739.72;5021879;28;20137;-79
2022/12/28 02:56:32;;;;;;;5.25;1.98;;;;;;;3.26;100.00;100734.16;5020861;28;20041;-79
2022/12/28 02:59:20;;;;;;;6.90;1.88;;;;;;;3.35;100.00;100718.00;5013974;28;20039;-79
2022/12/28 03:02:15;;;;;;;5.15;1.98;;;;;;;3.37;100.00;100713.28;5013548;28;20638;-79
2022/12/28 03:04:59;;;;;;;7.15;2.15;;;;;;;3.43;100.00;100709.91;5012166;28;20037;-79
2022/12/28 03:08:18;;;;;;;4.88;1.65;;;;;;;3.48;99.33;100707.56;5014442;28;20034;-79
2022/12/28 03:11:03;;;;;;;6.43;1.95;;;;;;;3.54;99.41;100700.63;5029360;28;20381;-80
2022/12/28 03:13:42;;;;;;;5.95;1.70;;;;;;;3.57;98.97;100711.94;5014138;28;20040;-78
2022/12/28 03:31:08;;;;;;;9.43;2.00;;;;;;;3.70;99.59;100662.84;5014190;28;20026;-81
2022/12/28 03:33:49;;;;;;;5.63;1.90;;;;;;;3.74;99.76;100653.38;5027598;28;20556;-78
2022/12/28 03:36:46;;;;;;;7.45;2.13;;;;;;;3.76;100.00;100645.13;5011950;28;20084;-78
2022/12/28 03:39:50;;;;;;;6.18;2.38;;;;;;;3.81;99.06;100641.91;5026127;28;20048;-80
2022/12/28 03:45:40;;;;;;;6.70;2.50;;;;;;;3.63;100.00;100640.28;5010974;28;20034;-80
2022/12/28 03:48:09;;;;;;;7.50;2.75;;;;;;;3.49;100.00;100633.72;5013569;28;20037;-79
2022/12/28 03:50:38;;;;;;;8.55;2.70;;;;;;;3.42;100.00;100632.69;5012486;28;20038;-79
2022/12/28 03:53:07;;;;;;;5.55;2.15;;;;;;;3.45;100.00;100632.38;5018167;28;20038;-79
2022/12/28 03:55:36;;;;;;;7.33;2.40;;;;;;;3.42;100.00;100633.53;5025960;28;20057;-79
2022/12/28 03:58:03;;;;;;;5.80;2.20;;;;;;;3.50;100.00;100629.13;5010863;28;20026;-78
2022/12/28 04:00:29;;;;;;;5.32;2.20;;;;;;;3.55;100.00;100635.72;5012022;28;20041;-79
2022/12/28 04:02:55;;;;;;;7.40;2.35;;;;;;;3.53;100.00;100618.88;5011945;28;20044;-79
2022/12/28 04:05:23;;;;;;;7.20;2.40;;;;;;;3.53;100.00;100602.69;5009810;28;20034;-79
2022/12/28 04:07:50;;;;;;;7.13;2.40;;;;;;;3.57;100.00;100595.06;5012347;28;20057;-78
2022/12/28 04:10:16;;;;;;;7.00;2.50;;;;;;;3.50;100.00;100575.19;5011254;28;20040;-80
2022/12/28 04:12:43;;;;;;;9.80;2.50;;;;;;;3.60;100.00;100582.09;5015135;28;20755;-79
2022/12/28 04:15:28;;;;;;;7.20;2.20;;;;;;;3.58;100.00;100581.41;5016932;28;20421;-79
2022/12/28 04:17:54;;;;;;;6.72;2.17;;;;;;;3.70;100.00;100564.84;5010165;28;20034;-80
2022/12/28 04:20:22;;;;;;;4.22;2.63;;;;;;;3.75;100.00;100562.50;5024416;28;20037;-79
2022/12/28 04:22:49;;;;;;;6.32;2.20;;;;;;;3.76;100.00;100549.81;5015458;28;20129;-79
2022/12/28 04:25:15;;;;;;;5.68;2.30;;;;;;;3.79;100.00;100544.06;5032642;28;20045;-79
2022/12/28 04:27:42;;;;;;;6.40;2.60;;;;;;;3.85;100.00;100546.91;5011105;28;20033;-79
2022/12/28 04:30:20;;;;;;;6.72;2.38;;;;;;;3.86;100.00;100545.91;5020283;28;20038;-78
2022/12/28 04:32:47;;;;;;;8.60;2.55;;;;;;;3.95;100.00;100532.38;5015675;28;20492;-79
2022/12/28 04:35:13;;;;;;;7.53;2.80;;;;;;;4.00;100.00;100524.59;5025031;28;20038;-78
2022/12/28 04:37:47;;;;;;;8.88;2.20;;;;;;;4.06;100.00;100529.28;5010498;28;20026;-79
2022/12/28 04:40:13;;;;;;;5.47;2.53;;;;;;;4.07;100.00;100520.16;5011263;28;20049;-78
2022/12/28 04:42:39;;;;;;;8.02;2.55;;;;;;;4.01;100.00;100507.38;5009716;28;20124;-78
2022/12/28 04:45:05;;;;;;;7.18;2.50;;;;;;;4.01;100.00;100496.59;5016159;28;20342;-80
2022/12/28 04:47:32;;;;;;;6.53;2.47;;;;;;;4.02;100.00;100484.78;5013095;28;20037;-80
2022/12/28 04:49:58;;;;;;;5.40;2.33;;;;;;;3.96;100.00;100489.00;5025700;28;20034;-79
2022/12/28 04:52:24;;;;;;;5.65;2.45;;;;;;;3.95;100.00;100486.47;5020778;28;20381;-78
2022/12/28 04:54:50;;;;;;;6.72;2.30;;;;;;;3.91;100.00;100490.56;5016056;28;20389;-79
2022/12/28 04:57:16;;;;;;;6.90;2.35;;;;;;;3.94;100.00;100485.66;5015080;28;20042;-79
2022/12/28 04:59:42;;;;;;;6.25;2.70;;;;;;;4.01;100.00;100480.38;5015971;28;20037;-78
2022/12/28 05:02:08;;;;;;;7.72;2.65;;;;;;;4.08;100.00;100475.94;5016088;28;20049;-79
2022/12/28 05:04:34;;;;;;;5.68;2.25;;;;;;;4.09;100.00;100461.44;5015501;28;20034;-79
2022/12/28 05:07:00;;;;;;;4.60;2.40;;;;;;;4.12;100.00;100458.38;5015295;28;20458;-79
2022/12/28 05:09:26;;;;;;;5.72;2.40;;;;;;;4.17;100.00;100469.47;5014878;28;20034;-80
2022/12/28 05:11:52;;;;;;;5.68;2.17;;;;;;;4.23;100.00;100462.53;5023073;28;20038;-79
2022/12/28 05:14:18;;;;;;;5.32;2.55;;;;;;;4.29;100.00;100453.69;5014491;28;20030;-79
2022/12/28 05:16:48;;;;;;;4.97;2.30;;;;;;;4.34;100.00;100446.91;5014396;28;20053;-79
2022/12/28 05:19:14;;;;;;;6.88;2.22;;;;;;;4.42;100.00;100444.16;5013305;28;20521;-79
2022/12/28 05:21:40;;;;;;;5.82;2.03;;;;;;;4.45;100.00;100438.38;5014987;28;20018;-79
2022/12/28 05:24:07;;;;;;;4.30;2.20;;;;;;;4.48;100.00;100438.03;5015667;28;20048;-80
2022/12/28 05:26:34;;;;;;;5.03;1.83;;;;;;;4.55;100.00;100438.13;5020220;28;20041;-78
2022/12/28 05:29:00;;;;;;;4.82;2.03;;;;;;;4.59;100.00;100439.44;5015446;28;20041;-81
2022/12/28 05:31:26;;;;;;;3.33;1.70;;;;;;;4.54;100.00;100431.88;5021917;28;20496;-79
2022/12/28 05:33:54;;;;;;;4.18;2.08;;;;;;;4.63;100.00;100429.94;5015406;28;20038;-79
2022/12/28 05:36:23;;;;;;;5.78;1.88;;;;;;;4.65;100.00;100427.09;5028326;28;20045;-79
2022/12/28 05:38:50;;;;;;;3.53;1.80;;;;;;;4.66;100.00;100423.34;5015863;28;20125;-78
2022/12/28 05:41:22;;;;;;;5.00;1.80;;;;;;;4.69;100.00;100420.28;5028250;28;20148;-78
2022/12/28 05:43:48;;;;;;;4.85;1.83;;;;;;;4.74;100.00;100432.19;5021702;28;20077;-81
2022/12/28 05:46:22;;;;;;;3.45;1.98;;;;;;;4.77;100.00;100419.34;5015262;28;20045;-79
2022/12/28 05:48:49;;;;;;;5.10;1.90;;;;;;;4.84;100.00;100418.41;5015705;28;20080;-79
2022/12/28 05:51:20;;;;;;;5.05;1.80;;;;;;;4.88;100.00;100419.72;5027787;28;20042;-79
2022/12/28 05:53:47;;;;;;;3.35;1.60;;;;;;;4.94;100.00;100410.03;5016063;28;20618;-80
2022/12/28 05:56:14;;;;;;;5.93;1.70;;;;;;;5.01;100.00;100408.25;5017126;28;20042;-79
2022/12/28 05:58:41;;;;;;;4.80;1.48;;;;;;;4.99;100.00;100399.50;5027650;28;20104;-80
2022/12/28 06:01:13;;;;;;;2.40;1.50;;;;;;;5.03;100.00;100416.22;5029841;28;20095;-81
2022/12/28 06:03:40;;;;;;;5.22;2.20;;;;;;;5.04;100.00;100401.66;5026292;28;20487;-80
2022/12/28 06:06:09;;;;;;;4.70;1.60;;;;;;;5.10;100.00;100403.59;5031877;28;20030;-79
2022/12/28 06:08:36;;;;;;;7.18;1.80;;;;;;;5.11;100.00;100385.53;5029907;28;20472;-80
2022/12/28 06:11:05;;;;;;;3.38;1.42;;;;;;;5.12;100.00;100389.91;5026456;28;20037;-80
2022/12/28 06:13:32;;;;;;;2.55;1.42;;;;;;;5.20;100.00;100381.69;5023967;28;20119;-82
2022/12/28 06:16:03;;;;;;;4.57;1.33;;;;;;;5.27;100.00;100379.91;5029818;28;20035;-80
2022/12/28 06:18:29;;;;;;;5.20;1.90;;;;;;;5.23;100.00;100365.09;5032521;28;20469;-81
2022/12/28 06:21:02;;;;;;;3.50;1.80;;;;;;;5.30;100.00;100384.13;5032187;28;20030;-80
2022/12/28 06:23:28;;;;;;;6.07;1.85;;;;;;;5.29;100.00;100371.63;5033564;28;20049;-80
2022/12/28 06:25:56;;;;;;;2.60;1.50;;;;;;;5.35;100.00;100378.97;5027186;28;20059;-80
2022/12/28 06:28:22;;;;;;;3.78;1.70;;;;;;;5.35;100.00;100378.97;5031891;28;20038;-79
2022/12/28 06:30:48;;;;;;;4.03;1.77;;;;;;;5.34;100.00;100377.28;5030536;28;20871;-82
2022/12/28 06:33:14;;;;;;;3.03;1.48;;;;;;;5.30;100.00;100347.09;5026630;28;20034;-79
2022/12/28 06:35:40;;;;;;;4.95;1.80;;;;;;;5.25;100.00;100365.72;5031610;28;20044;-80
2022/12/28 06:38:07;;;;;;;4.63;2.40;;;;;;;5.08;100.00;100362.41;5028498;28;20038;-80
2022/12/28 06:40:33;;;;;;;4.18;2.00;;;;;;;4.94;100.00;100365.97;5033494;28;20147;-80
2022/12/28 06:42:59;;;;;;;5.10;2.05;;;;;;;4.86;100.00;100348.78;5024108;28;20057;-78
2022/12/28 06:45:25;;;;;;;3.70;1.90;;;;;;;4.86;100.00;100345.25;5027857;28;20530;-77
2022/12/28 06:47:52;;;;;;;3.28;1.55;;;;;;;4.84;100.00;100336.50;5021406;28;20033;-76
2022/12/28 06:50:18;;;;;;;4.32;2.05;;;;;;;4.75;100.00;100325.75;5036683;28;20079;-80
2022/12/28 06:52:44;;;;;;;4.03;1.95;;;;;;;4.81;100.00;100337.69;5025062;28;20034;-80
2022/12/28 06:55:10;;;;;;;4.57;1.98;;;;;;;4.85;100.00;100335.47;5013288;28;20045;-83
2022/12/28 06:57:36;;;;;;;3.95;2.05;;;;;;;4.85;100.00;100338.19;5020889;28;20037;-83
2022/12/28 07:00:03;;;;;;;4.40;1.90;;;;;;;4.80;100.00;100333.31;5030899;28;20029;-78
2022/12/28 07:02:29;;;;;;;6.18;1.98;;;;;;;4.87;100.00;100344.25;5028261;28;20386;-78
2022/12/28 07:04:55;;;;;;;3.92;1.80;;;;;;;4.84;100.00;100340.03;5028803;28;20041;-77
2022/12/28 07:07:21;;;;;;;3.53;1.80;;;;;;;4.82;100.00;100341.25;5028583;28;20045;-76
2022/12/28 07:09:47;;;;;;;4.88;2.05;;;;;;;4.80;100.00;100346.00;5025930;28;20473;-76
2022/12/28 07:12:14;;;;;;;5.22;2.22;;;;;;;4.82;100.00;100352.91;5017047;28;20034;-78
2022/12/28 07:14:40;;;;;;;3.38;1.98;;;;;;;4.86;100.00;100347.97;5009493;28;20037;-77
2022/12/28 07:17:06;;;;;;;4.65;2.17;;;;;;;4.82;100.00;100355.59;5013573;28;20123;-77
2022/12/28 07:19:32;;;;;;;4.80;2.03;;;;;;;4.74;100.00;100343.00;5012589;28;20044;-77
2022/12/28 07:21:58;;;;;;;3.33;1.77;;;;;;;4.66;100.00;100337.69;5018089;28;20761;-77
2022/12/28 07:24:24;;;;;;;3.88;1.95;;;;;;;4.69;100.00;100339.22;5014908;28;20060;-77
2022/12/28 07:26:50;;;;;;;4.93;2.22;;;;;;;4.76;100.00;100348.25;5012385;28;20040;-77
2022/12/28 07:29:16;;;;;;;5.47;2.35;;;;;;;4.78;100.00;100338.06;5010254;28;20576;-78
2022/12/28 07:31:42;;;;;;;4.28;2.00;;;;;;;4.79;100.00;100341.63;5012342;28;20258;-77
2022/12/28 07:34:08;;;;;;;3.88;2.05;;;;;;;4.74;100.00;100343.00;5010618;28;20038;-79
2022/12/28 07:36:34;;;;;;;5.05;2.30;;;;;;;4.79;100.00;100337.06;5027251;28;20037;-79
2022/12/28 07:39:01;;;;;;;4.80;2.17;;;;;;;4.87;100.00;100346.94;5012483;28;20120;-78
2022/12/28 07:41:31;;;;;;;5.80;2.08;;;;;;;4.88;100.00;100341.31;5020181;28;20025;-79
2022/12/28 07:43:58;;;;;;;5.00;2.13;;;;;;;4.87;100.00;100330.72;5025218;28;20405;-79
2022/12/28 07:46:29;;;;;;;3.70;2.17;;;;;;;4.88;100.00;100335.09;5024298;28;20113;-80
2022/12/28 07:48:56;;;;;;;3.08;1.77;;;;;;;5.00;100.00;100344.41;5027973;28;20041;-79
2022/12/28 07:51:28;;;;;;;3.63;2.00;;;;;;;5.04;100.00;100355.69;5029186;28;20104;-80
2022/12/28 07:53:55;;;;;;;5.05;1.88;;;;;;;5.07;100.00;100359.91;5025737;28;20091;-79
2022/12/28 07:56:23;;;;;;;5.03;2.20;;;;;;;5.09;100.00;100341.63;5026429;28;20041;-81
2022/12/28 07:58:51;;;;;;;5.05;2.30;;;;;;;5.08;100.00;100334.53;5019230;28;20069;-80
2022/12/28 08:01:19;;;;;;;4.28;2.20;;;;;;;5.12;100.00;100338.53;5024981;28;20416;-80
2022/12/28 08:03:45;;;;;;;3.30;1.80;;;;;;;5.15;100.00;100320.03;5024840;28;20057;-78
2022/12/28 08:06:19;;;;;;;5.60;2.53;;;;;;;5.23;100.00;100321.81;5025031;28;20038;-77
2022/12/28 08:08:48;;;;;;;3.45;1.88;;;;;;;5.24;100.00;100353.25;5029092;28;20068;-79
2022/12/28 08:11:17;;;;;;;3.40;2.15;;;;;;;5.28;100.00;100346.41;5032340;28;20068;-79
2022/12/28 08:13:46;;;;;;;5.53;2.00;;;;;;;5.29;100.00;100353.50;5025873;28;20495;-78
2022/12/28 08:16:14;;;;;;;5.85;1.90;;;;;;;5.29;100.00;100344.56;5029473;28;20045;-78
2022/12/28 08:18:41;;;;;;;5.55;2.28;;;;;;;5.30;100.00;100362.47;5019704;28;20045;-80
2022/12/28 08:21:13;;;;;;;3.75;2.05;;;;;;;5.31;100.00;100343.38;5030395;28;20033;-80
2022/12/28 08:23:39;;;;;;;4.70;2.20;;;;;;;5.29;100.00;100342.69;5026693;28;20025;-78
2022/12/28 08:26:15;;;;;;;3.83;1.80;;;;;;;5.28;100.00;100332.88;5032283;28;20033;-79
2022/12/28 08:28:43;;;;;;;4.22;2.25;;;;;;;5.35;100.00;100329.44;5035512;28;20083;-79
2022/12/28 08:31:19;;;;;;;5.55;2.15;;;;;;;5.29;100.00;100326.44;5029586;28;20038;-78
2022/12/28 08:33:45;;;;;;;4.43;2.00;;;;;;;5.33;100.00;100327.78;5033251;28;20044;-78
2022/12/28 08:36:12;;;;;;;5.28;2.10;;;;;;;5.34;100.00;100325.91;5035102;28;20044;-80
2022/12/28 08:38:40;;;;;;;4.57;2.10;;;;;;;5.41;100.00;100307.84;5031430;28;20113;-78
2022/12/28 08:41:11;;;;;;;4.50;1.90;;;;;;;5.45;100.00;100320.00;5031315;28;20118;-80
2022/12/28 08:43:37;;;;;;;3.90;1.77;;;;;;;5.49;100.00;100311.50;5030499;28;20056;-79
2022/12/28 08:46:10;;;;;;;5.45;2.30;;;;;;;5.53;100.00;100324.44;5032786;28;20120;-79
2022/12/28 08:48:36;;;;;;;3.40;1.90;;;;;;;5.61;100.00;100321.63;5028489;28;20042;-80
2022/12/28 08:51:11;;;;;;;5.30;1.80;;;;;;;5.65;100.00;100321.25;5033029;28;20029;-80
2022/12/28 08:53:38;;;;;;;4.20;2.00;;;;;;;5.66;100.00;100317.50;5028911;28;20116;-80
2022/12/28 08:56:10;;;;;;;4.20;2.00;;;;;;;5.66;100.00;100347.28;5022376;28;20493;-80
2022/12/28 08:58:37;;;;;;;4.10;2.05;;;;;;;5.69;100.00;100336.88;5019047;28;20036;-79
2022/12/28 09:01:21;;;;;;;5.32;2.28;;;;;;;5.76;100.00;100335.09;5023766;28;20041;-79
2022/12/28 09:03:49;;;;;;;3.17;1.60;;;;;;;5.79;100.00;100346.56;5003127;28;20037;-79
2022/12/28 09:06:17;;;;;;;3.67;1.90;;;;;;;5.79;100.00;100346.56;5029855;28;20063;-79
2022/12/28 09:08:43;;;;;;;5.68;2.00;;;;;;;5.85;100.00;100338.53;5009859;28;20044;-80
2022/12/28 09:11:12;;;;;;;4.60;1.88;;;;;;;5.88;100.00;100354.38;5031317;28;20042;-80
2022/12/28 09:13:38;;;;;;;4.63;1.90;;;;;;;5.92;100.00;100337.75;5028003;28;20092;-79
2022/12/28 09:16:07;;;;;;;3.45;1.83;;;;;;;5.92;100.00;100335.88;5026940;28;20041;-80
2022/12/28 09:18:34;;;;;;;3.75;1.67;;;;;;;5.95;100.00;100345.47;5031214;28;20037;-79
2022/12/28 09:21:09;;;;;;;3.95;1.90;;;;;;;5.92;100.00;100345.88;5014138;28;20041;-79
2022/12/28 09:23:36;;;;;;;4.13;2.00;;;;;;;5.94;100.00;100333.78;5029614;28;20041;-78
2022/12/28 09:26:14;;;;;;;4.13;1.80;;;;;;;5.98;100.00;100342.38;5033109;28;20645;-79
2022/12/28 09:28:48;;;;;;;4.68;1.85;;;;;;;5.97;100.00;100335.28;5034396;28;20043;-80
2022/12/28 09:31:16;;;;;;;3.65;1.83;;;;;;;6.03;100.00;100340.81;5009825;28;20104;-78
2022/12/28 09:33:57;;;;;;;2.95;1.77;;;;;;;6.04;100.00;100331.66;5015706;28;20049;-76
2022/12/28 09:36:24;;;;;;;4.55;2.00;;;;;;;6.11;100.00;100326.31;5019138;28;20042;-77
2022/12/28 09:38:52;;;;;;;4.03;2.00;;;;;;;6.09;100.00;100336.47;5019179;28;20034;-76
2022/12/28 09:41:20;;;;;;;3.30;2.33;;;;;;;6.10;100.00;100338.16;5015210;28;20088;-77
2022/12/28 09:43:48;;;;;;;3.08;1.70;;;;;;;6.18;100.00;100345.28;5023080;28;20061;-77
2022/12/28 09:46:17;;;;;;;;;;;;;;;6.19;100.00;100347.81;5014686;28;20492;-76
2022/12/28 09:48:56;;;;;;;3.42;1.58;;;;;;;6.25;100.00;100351.63;5015899;28;19925;-75
2022/12/28 09:51:32;;;;;;;4.85;2.08;;;;;;;6.25;100.00;100345.34;5033846;28;20049;-76
2022/12/28 09:53:58;;;;;;;3.38;1.70;;;;;;;6.28;100.00;100351.22;5015958;28;20037;-75
2022/12/28 09:56:39;;;;;;;4.63;2.17;;;;;;;6.29;100.00;100349.34;5011964;28;20034;-75
2022/12/28 09:59:09;;;;;;;3.80;1.70;;;;;;;6.32;100.00;100336.25;5022651;28;20171;-76
2022/12/28 10:01:38;;;;;;;5.13;2.00;;;;;;;6.40;100.00;100353.41;5030744;28;20037;-76
2022/12/28 10:04:05;;;;;;;3.42;2.05;;;;;;;6.42;100.00;100356.75;5028689;28;20558;-77
2022/12/28 10:06:35;;;;;;;4.47;1.75;;;;;;;6.51;100.00;100339.31;5027117;28;20037;-75
2022/12/28 10:09:08;;;;;;;4.05;1.77;;;;;;;6.50;100.00;100343.06;5027500;28;20440;-74
2022/12/28 10:11:40;;;;;;;4.25;1.95;;;;;;;6.56;100.00;100328.72;5026265;28;20035;-75
2022/12/28 10:14:34;;;;;;;3.10;1.90;;;;;;;6.51;100.00;100339.31;5028385;28;20099;-76
2022/12/28 10:17:01;;;;;;;3.90;2.00;;;;;;;6.59;100.00;100317.47;5022272;28;20085;-75
2022/12/28 10:19:28;;;;;;;3.90;1.83;;;;;;;6.66;100.00;100322.09;5017943;28;20038;-76
2022/12/28 10:22:05;;;;;;;3.97;1.65;;;;;;;6.67;100.00;100345.47;5012988;28;20057;-77
2022/12/28 10:24:32;;;;;;;3.63;1.50;;;;;;;6.69;100.00;100325.25;5031666;28;20037;-79
2022/12/28 10:27:02;;;;;;;3.25;1.50;;;;;;;6.72;100.00;100341.13;5010809;28;20088;-76
2022/12/28 10:29:31;;;;;;;2.85;1.80;;;;;;;6.72;100.00;100313.16;5015225;28;20408;-76
2022/12/28 10:32:08;;;;;;;3.30;1.77;;;;;;;6.76;100.00;100307.16;5025602;28;20099;-76
2022/12/28 10:34:35;;;;;;;2.40;1.30;;;;;;;6.76;100.00;100309.00;5013328;28;20049;-76
2022/12/28 10:37:15;;;;;;;3.22;1.60;;;;;;;6.78;100.00;100315.09;5023134;28;20037;-76
2022/12/28 10:39:52;;;;;;;3.88;1.60;;;;;;;6.76;100.00;100307.16;5010878;28;20157;-75
2022/12/28 10:42:41;;;;;;;3.25;1.50;;;;;;;6.69;100.00;100311.69;5011881;28;20046;-76
2022/12/28 10:45:18;;;;;;;2.70;1.45;;;;;;;6.72;100.00;100302.31;5011977;28;20041;-75
2022/12/28 10:47:49;;;;;;;4.07;1.40;;;;;;;6.76;100.00;100290.03;5012503;28;20029;-75
2022/12/28 10:50:39;;;;;;;3.53;1.40;;;;;;;6.75;100.00;100302.75;5017014;28;20111;-77
2022/12/28 10:53:22;;;;;;;2.25;1.30;;;;;;;6.72;100.00;100291.47;5021304;28;20041;-77
2022/12/28 10:55:48;;;;;;;1.88;1.13;;;;;;;6.67;100.00;100291.25;5023286;28;20033;-76
2022/12/28 10:58:26;;;;;;;2.00;1.23;;;;;;;6.65;100.00;100301.44;5026383;28;20053;-76
2022/12/28 11:00:57;;;;;;;3.05;1.27;;;;;;;6.59;100.00;100297.66;5014441;28;20374;-76
2022/12/28 11:03:29;;;;;;;3.15;1.13;;;;;;;6.60;100.00;100288.47;5013555;28;20436;-76
2022/12/28 11:06:18;;;;;;;2.78;1.27;;;;;;;6.55;100.00;100288.25;5018437;28;20037;-77
2022/12/28 11:09:18;;;;;;;2.92;1.10;;;;;;;6.55;100.00;100301.81;5028399;28;20052;-78
2022/12/28 11:11:46;;;;;;;3.20;1.20;;;;;;;6.60;100.00;100299.31;5013286;28;20132;-79
2022/12/28 11:14:30;;;;;;;2.45;1.30;;;;;;;6.57;100.00;100286.16;5028097;28;20136;-77
2022/12/28 11:16:57;;;;;;;2.22;1.23;;;;;;;6.56;100.00;100281.78;5028196;28;20037;-77
2022/12/28 11:19:24;;;;;;;2.17;1.10;;;;;;;6.55;100.00;100280.97;5018161;28;20444;-77
2022/12/28 11:21:51;;;;;;;2.40;1.17;;;;;;;6.55;100.00;100280.13;5012654;28;20048;-77
2022/12/28 11:24:19;;;;;;;3.58;1.15;;;;;;;6.54;100.00;100278.44;5013861;28;20148;-76
2022/12/28 11:26:49;;;;;;;1.58;1.00;;;;;;;6.58;100.00;100269.72;5013589;28;20315;-78
2022/12/28 11:29:17;;;;;;;1.98;0.90;;;;;;;6.62;100.00;100265.56;5014172;28;20746;-77
2022/12/28 11:31:51;;;;;;;2.10;1.02;;;;;;;6.67;100.00;100277.69;5024990;28;20037;-77
2022/12/28 11:34:22;;;;;;;1.15;0.70;;;;;;;6.69;100.00;100281.88;5017292;28;20046;-78
2022/12/28 11:36:48;;;;;;;2.22;0.70;;;;;;;6.72;100.00;100281.47;5017495;28;20072;-78
2022/12/28 11:39:26;;;;;;;2.97;0.93;;;;;;;6.67;100.00;100277.69;5026380;28;20050;-78
2022/12/28 11:42:00;;;;;;;2.83;0.70;;;;;;;6.74;100.00;100273.13;5024751;28;20037;-78
2022/12/28 11:44:29;;;;;;;0.93;0.75;;;;;;;6.72;100.00;100286.91;5027281;28;20108;-79
2022/12/28 11:47:15;;;;;;;1.55;0.75;;;;;;;6.68;100.00;100273.94;5027061;28;20537;-78
2022/12/28 11:49:46;;;;;;;1.50;0.70;;;;;;;6.72;100.00;100269.78;5013637;28;20117;-80
2022/12/28 11:52:25;;;;;;;2.00;0.68;;;;;;;6.71;100.00;100255.41;5013614;28;20406;-78
2022/12/28 11:54:56;;;;;;;1.00;0.70;;;;;;;6.74;100.00;100268.56;5018421;28;20069;-78
2022/12/28 11:57:42;;;;;;;2.42;0.65;;;;;;;6.79;100.00;100258.97;5020902;28;20030;-78
2022/12/28 12:00:18;;;;;;;1.05;0.60;;;;;;;6.80;100.00;100266.94;5015762;28;20370;-78
2022/12/28 12:02:49;;;;;;;0.93;0.60;;;;;;;6.84;100.00;100256.50;5024440;28;20458;-78
2022/12/28 12:05:51;;;;;;;0.73;0.50;;;;;;;6.93;100.00;100244.44;5016234;28;20172;-80
2022/12/28 12:08:17;;;;;;;1.88;0.60;;;;;;;6.93;100.00;100255.31;5000159;28;20046;-77